Hinkley, California
Current Conditions -  °F | °C
As of 9:50 AM on Friday 24 Oct 2014 (Local Time) from KDAG Reporting Station
Clear Clear  
Wind Chill: 71°   Ceiling: Unl
Heat Index: 71°   Visibility: 10mi
Dew Point: 29°   Wind: 0mph
Humidity: 21%   Direction: NA
Pressure: 30.09"   Gusts: NA
Location:  34.93°N, 117.2°W
Report Text: KDAG 241650Z AUTO 00000KT 10SM CLR 22/M02 A3009 RMK AO2 SLP171 T02171017
Loading
Personal Weather Stations






























Interactive Weather Map
Tropical Storm Tracking
New forecast layout! Learn more

10-Day Weather Forecast

Advertisements
Track Severe Weather on mobile